Terminal Aerodrome Forecast
Issued by NWS

Home | Current Version | Previous Version | Text Only | Print | Product List | Glossary On
Versions: 1 2 3 4 5 6 7 8 9 10 11 12
000
FTUS42 KGSP 291720
TAFAND
TAF
KAND 291720Z 2918/3018 21008KT P6SM BKN200
     FM300700 27006KT P6SM BKN110
     FM301200 30008KT P6SM SCT250
     FM301600 30010G17KT P6SM FEW250=

USA.gov is the U.S. government's official web portal to all federal, state and local government web resources and services.